sensor_id;sensor_type;location;lat;lon;timestamp;temperature;humidity
35027;DHT22;60696;51.426;6.934;2023-02-11T00:00:07;6.20;99.90
35027;DHT22;60696;51.426;6.934;2023-02-11T00:02:33;6.30;99.90
35027;DHT22;60696;51.426;6.934;2023-02-11T00:04:59;6.20;99.90
35027;DHT22;60696;51.426;6.934;2023-02-11T00:07:32;6.20;99.90
35027;DHT22;60696;51.426;6.934;2023-02-11T00:09:58;6.20;99.90
35027;DHT22;60696;51.426;6.934;2023-02-11T00:12:24;6.20;99.90
35027;DHT22;60696;51.426;6.934;2023-02-11T00:14:50;6.20;99.90
35027;DHT22;60696;51.426;6.934;2023-02-11T00:17:16;6.10;99.90
35027;DHT22;60696;51.426;6.934;2023-02-11T00:19:42;6.20;99.90
35027;DHT22;60696;51.426;6.934;2023-02-11T00:22:08;6.10;99.90
35027;DHT22;60696;51.426;6.934;2023-02-11T00:24:35;6.10;99.90
35027;DHT22;60696;51.426;6.934;2023-02-11T00:27:00;6.10;99.90
35027;DHT22;60696;51.426;6.934;2023-02-11T00:29:26;6.10;99.90
35027;DHT22;60696;51.426;6.934;2023-02-11T00:31:52;6.10;99.90
35027;DHT22;60696;51.426;6.934;2023-02-11T00:34:17;6.20;99.90
35027;DHT22;60696;51.426;6.934;2023-02-11T00:36:43;6.20;99.90
35027;DHT22;60696;51.426;6.934;2023-02-11T00:39:09;6.30;99.90
35027;DHT22;60696;51.426;6.934;2023-02-11T00:41:35;6.30;99.90
35027;DHT22;60696;51.426;6.934;2023-02-11T00:44:01;6.30;99.90
35027;DHT22;60696;51.426;6.934;2023-02-11T00:46:27;6.30;99.90
35027;DHT22;60696;51.426;6.934;2023-02-11T00:48:53;6.30;99.90
35027;DHT22;60696;51.426;6.934;2023-02-11T00:51:26;6.30;99.90
35027;DHT22;60696;51.426;6.934;2023-02-11T00:53:52;6.40;99.90
35027;DHT22;60696;51.426;6.934;2023-02-11T00:56:17;6.40;99.90
35027;DHT22;60696;51.426;6.934;2023-02-11T00:58:43;6.40;99.90
35027;DHT22;60696;51.426;6.934;2023-02-11T01:01:09;6.40;99.90
35027;DHT22;60696;51.426;6.934;2023-02-11T01:03:34;6.40;99.90
35027;DHT22;60696;51.426;6.934;2023-02-11T01:06:00;6.40;99.90
35027;DHT22;60696;51.426;6.934;2023-02-11T01:08:26;6.40;99.90
35027;DHT22;60696;51.426;6.934;2023-02-11T01:10:58;6.40;99.90
35027;DHT22;60696;51.426;6.934;2023-02-11T01:13:25;6.30;99.90
35027;DHT22;60696;51.426;6.934;2023-02-11T01:15:50;6.40;99.90
35027;DHT22;60696;51.426;6.934;2023-02-11T01:18:16;6.40;99.90
35027;DHT22;60696;51.426;6.934;2023-02-11T01:20:42;6.40;99.90
35027;DHT22;60696;51.426;6.934;2023-02-11T01:23:08;6.40;99.90
35027;DHT22;60696;51.426;6.934;2023-02-11T01:25:33;6.40;99.90
35027;DHT22;60696;51.426;6.934;2023-02-11T01:27:59;6.50;99.90
35027;DHT22;60696;51.426;6.934;2023-02-11T01:30:24;6.50;99.90
35027;DHT22;60696;51.426;6.934;2023-02-11T01:32:50;6.50;99.90
35027;DHT22;60696;51.426;6.934;2023-02-11T01:35:16;6.50;99.90
35027;DHT22;60696;51.426;6.934;2023-02-11T01:37:41;6.50;99.90
35027;DHT22;60696;51.426;6.934;2023-02-11T01:40:12;6.50;99.90
35027;DHT22;60696;51.426;6.934;2023-02-11T01:42:38;6.50;99.90
35027;DHT22;60696;51.426;6.934;2023-02-11T01:46:12;6.50;99.90
35027;DHT22;60696;51.426;6.934;2023-02-11T01:48:21;6.50;99.90
35027;DHT22;60696;51.426;6.934;2023-02-11T01:50:51;6.50;99.90
35027;DHT22;60696;51.426;6.934;2023-02-11T01:53:18;6.50;99.90
35027;DHT22;60696;51.426;6.934;2023-02-11T01:56:04;6.50;99.90
35027;DHT22;60696;51.426;6.934;2023-02-11T01:58:50;6.50;99.90
35027;DHT22;60696;51.426;6.934;2023-02-11T02:01:19;6.50;99.90
35027;DHT22;60696;51.426;6.934;2023-02-11T02:03:47;6.50;99.90
35027;DHT22;60696;51.426;6.934;2023-02-11T02:06:18;6.50;99.90
35027;DHT22;60696;51.426;6.934;2023-02-11T02:11:16;6.40;99.90
35027;DHT22;60696;51.426;6.934;2023-02-11T02:13:41;6.50;99.90
35027;DHT22;60696;51.426;6.934;2023-02-11T02:16:15;6.40;99.90
35027;DHT22;60696;51.426;6.934;2023-02-11T02:32:45;6.30;99.90
35027;DHT22;60696;51.426;6.934;2023-02-11T02:38:22;6.20;99.90
35027;DHT22;60696;51.426;6.934;2023-02-11T02:41:09;6.20;99.90
35027;DHT22;60696;51.426;6.934;2023-02-11T02:43:43;6.20;99.90
35027;DHT22;60696;51.426;6.934;2023-02-11T02:46:13;6.20;99.90
35027;DHT22;60696;51.426;6.934;2023-02-11T02:48:39;6.10;99.90
35027;DHT22;60696;51.426;6.934;2023-02-11T02:51:29;6.10;99.90
35027;DHT22;60696;51.426;6.934;2023-02-11T02:56:39;6.20;99.90
35027;DHT22;60696;51.426;6.934;2023-02-11T03:02:28;6.10;99.90
35027;DHT22;60696;51.426;6.934;2023-02-11T03:05:05;6.10;99.90
35027;DHT22;60696;51.426;6.934;2023-02-11T03:10:32;6.10;99.90
35027;DHT22;60696;51.426;6.934;2023-02-11T03:13:00;6.10;99.90
35027;DHT22;60696;51.426;6.934;2023-02-11T03:15:30;6.10;99.90
35027;DHT22;60696;51.426;6.934;2023-02-11T03:17:59;6.00;99.90
35027;DHT22;60696;51.426;6.934;2023-02-11T03:20:27;6.00;99.90
35027;DHT22;60696;51.426;6.934;2023-02-11T03:23:08;6.00;99.90
35027;DHT22;60696;51.426;6.934;2023-02-11T03:25:46;6.00;99.90
35027;DHT22;60696;51.426;6.934;2023-02-11T03:31:11;6.00;99.90
35027;DHT22;60696;51.426;6.934;2023-02-11T03:33:51;6.10;99.90
35027;DHT22;60696;51.426;6.934;2023-02-11T03:36:23;6.00;99.90
35027;DHT22;60696;51.426;6.934;2023-02-11T03:38:55;6.00;99.90
35027;DHT22;60696;51.426;6.934;2023-02-11T03:41:23;6.10;99.90
35027;DHT22;60696;51.426;6.934;2023-02-11T03:43:55;6.10;99.90
35027;DHT22;60696;51.426;6.934;2023-02-11T03:46:26;6.10;99.90
35027;DHT22;60696;51.426;6.934;2023-02-11T03:48:57;6.10;99.90
35027;DHT22;60696;51.426;6.934;2023-02-11T03:51:24;6.10;99.90
35027;DHT22;60696;51.426;6.934;2023-02-11T03:53:54;6.00;99.90
35027;DHT22;60696;51.426;6.934;2023-02-11T03:56:25;6.00;99.90
35027;DHT22;60696;51.426;6.934;2023-02-11T03:58:52;6.00;99.90
35027;DHT22;60696;51.426;6.934;2023-02-11T04:01:17;6.00;99.90
35027;DHT22;60696;51.426;6.934;2023-02-11T04:03:43;6.10;99.90
35027;DHT22;60696;51.426;6.934;2023-02-11T04:06:08;6.10;99.90
35027;DHT22;60696;51.426;6.934;2023-02-11T04:08:34;6.10;99.90
35027;DHT22;60696;51.426;6.934;2023-02-11T04:11:00;6.00;99.90
35027;DHT22;60696;51.426;6.934;2023-02-11T04:13:25;6.10;99.90
35027;DHT22;60696;51.426;6.934;2023-02-11T04:15:51;6.10;99.90
35027;DHT22;60696;51.426;6.934;2023-02-11T04:18:17;6.10;99.90
35027;DHT22;60696;51.426;6.934;2023-02-11T04:20:42;6.10;99.90
35027;DHT22;60696;51.426;6.934;2023-02-11T04:23:08;6.10;99.90
35027;DHT22;60696;51.426;6.934;2023-02-11T04:25:34;6.10;99.90
35027;DHT22;60696;51.426;6.934;2023-02-11T04:28:00;6.00;99.90
35027;DHT22;60696;51.426;6.934;2023-02-11T04:30:25;6.10;99.90
35027;DHT22;60696;51.426;6.934;2023-02-11T04:32:51;6.00;99.90
35027;DHT22;60696;51.426;6.934;2023-02-11T04:35:18;6.00;99.90
35027;DHT22;60696;51.426;6.934;2023-02-11T04:37:44;6.00;99.90
35027;DHT22;60696;51.426;6.934;2023-02-11T04:40:10;6.00;99.90
35027;DHT22;60696;51.426;6.934;2023-02-11T04:42:36;6.00;99.90
35027;DHT22;60696;51.426;6.934;2023-02-11T04:45:01;6.00;99.90
35027;DHT22;60696;51.426;6.934;2023-02-11T04:47:27;6.00;99.90
35027;DHT22;60696;51.426;6.934;2023-02-11T04:49:53;6.10;99.90
35027;DHT22;60696;51.426;6.934;2023-02-11T04:52:18;6.00;99.90
35027;DHT22;60696;51.426;6.934;2023-02-11T04:54:44;6.00;99.90
35027;DHT22;60696;51.426;6.934;2023-02-11T04:57:09;6.00;99.90
35027;DHT22;60696;51.426;6.934;2023-02-11T04:59:35;6.00;99.90
35027;DHT22;60696;51.426;6.934;2023-02-11T05:02:00;6.00;99.90
35027;DHT22;60696;51.426;6.934;2023-02-11T05:04:26;6.00;99.90
35027;DHT22;60696;51.426;6.934;2023-02-11T05:06:52;6.00;99.90
35027;DHT22;60696;51.426;6.934;2023-02-11T05:09:17;6.00;99.90
35027;DHT22;60696;51.426;6.934;2023-02-11T05:11:43;5.90;99.90
35027;DHT22;60696;51.426;6.934;2023-02-11T05:14:09;6.00;99.90
35027;DHT22;60696;51.426;6.934;2023-02-11T05:16:34;6.00;99.90
35027;DHT22;60696;51.426;6.934;2023-02-11T05:19:00;6.00;99.90
35027;DHT22;60696;51.426;6.934;2023-02-11T05:21:25;6.00;99.90
35027;DHT22;60696;51.426;6.934;2023-02-11T05:23:51;6.00;99.90
35027;DHT22;60696;51.426;6.934;2023-02-11T05:26:17;6.00;99.90
35027;DHT22;60696;51.426;6.934;2023-02-11T05:28:43;6.00;99.90
35027;DHT22;60696;51.426;6.934;2023-02-11T05:31:09;5.90;99.90
35027;DHT22;60696;51.426;6.934;2023-02-11T05:33:39;5.90;99.90
35027;DHT22;60696;51.426;6.934;2023-02-11T05:36:08;5.90;99.90
35027;DHT22;60696;51.426;6.934;2023-02-11T05:38:34;5.90;99.90
35027;DHT22;60696;51.426;6.934;2023-02-11T05:41:00;5.90;99.90
35027;DHT22;60696;51.426;6.934;2023-02-11T05:43:26;5.90;99.90
35027;DHT22;60696;51.426;6.934;2023-02-11T05:45:52;5.90;99.90
35027;DHT22;60696;51.426;6.934;2023-02-11T05:48:17;5.90;99.90
35027;DHT22;60696;51.426;6.934;2023-02-11T05:50:43;5.90;99.90
35027;DHT22;60696;51.426;6.934;2023-02-11T05:53:09;5.90;99.90
35027;DHT22;60696;51.426;6.934;2023-02-11T05:55:35;6.00;99.90
35027;DHT22;60696;51.426;6.934;2023-02-11T05:58:01;5.90;99.90
35027;DHT22;60696;51.426;6.934;2023-02-11T06:00:26;5.90;99.90
35027;DHT22;60696;51.426;6.934;2023-02-11T06:02:52;6.00;99.90
35027;DHT22;60696;51.426;6.934;2023-02-11T06:05:18;6.00;99.90
35027;DHT22;60696;51.426;6.934;2023-02-11T06:07:44;5.90;99.90
35027;DHT22;60696;51.426;6.934;2023-02-11T06:10:10;5.90;99.90
35027;DHT22;60696;51.426;6.934;2023-02-11T06:12:36;5.90;99.90
35027;DHT22;60696;51.426;6.934;2023-02-11T06:15:02;5.90;99.90
35027;DHT22;60696;51.426;6.934;2023-02-11T06:17:28;5.90;99.90
35027;DHT22;60696;51.426;6.934;2023-02-11T06:19:59;5.90;99.90
35027;DHT22;60696;51.426;6.934;2023-02-11T06:22:25;5.90;99.90
35027;DHT22;60696;51.426;6.934;2023-02-11T06:24:51;5.90;99.90
35027;DHT22;60696;51.426;6.934;2023-02-11T06:27:16;5.90;99.90
35027;DHT22;60696;51.426;6.934;2023-02-11T06:29:43;6.00;99.90
35027;DHT22;60696;51.426;6.934;2023-02-11T06:32:09;5.90;99.90
35027;DHT22;60696;51.426;6.934;2023-02-11T06:34:35;6.00;99.90
35027;DHT22;60696;51.426;6.934;2023-02-11T06:37:00;6.00;99.90
35027;DHT22;60696;51.426;6.934;2023-02-11T06:39:26;6.00;99.90
35027;DHT22;60696;51.426;6.934;2023-02-11T06:41:52;6.00;99.90
35027;DHT22;60696;51.426;6.934;2023-02-11T06:44:17;6.00;99.90
35027;DHT22;60696;51.426;6.934;2023-02-11T06:46:43;5.90;99.90
35027;DHT22;60696;51.426;6.934;2023-02-11T06:49:08;5.90;99.90
35027;DHT22;60696;51.426;6.934;2023-02-11T06:51:34;6.00;99.90
35027;DHT22;60696;51.426;6.934;2023-02-11T06:54:00;6.00;99.90
35027;DHT22;60696;51.426;6.934;2023-02-11T06:56:25;6.00;99.90
35027;DHT22;60696;51.426;6.934;2023-02-11T06:58:55;6.00;99.90
35027;DHT22;60696;51.426;6.934;2023-02-11T07:01:21;6.00;99.90
35027;DHT22;60696;51.426;6.934;2023-02-11T07:03:48;6.00;99.90
35027;DHT22;60696;51.426;6.934;2023-02-11T07:06:17;6.00;99.90
35027;DHT22;60696;51.426;6.934;2023-02-11T07:08:43;6.00;99.90
35027;DHT22;60696;51.426;6.934;2023-02-11T07:11:24;6.10;99.90
35027;DHT22;60696;51.426;6.934;2023-02-11T07:13:52;6.00;99.90
35027;DHT22;60696;51.426;6.934;2023-02-11T07:16:18;6.10;99.90
35027;DHT22;60696;51.426;6.934;2023-02-11T07:18:45;6.10;99.90
35027;DHT22;60696;51.426;6.934;2023-02-11T07:21:13;6.10;99.90
35027;DHT22;60696;51.426;6.934;2023-02-11T07:23:39;6.10;99.90
35027;DHT22;60696;51.426;6.934;2023-02-11T07:26:14;6.10;99.90
35027;DHT22;60696;51.426;6.934;2023-02-11T07:28:41;6.10;99.90
35027;DHT22;60696;51.426;6.934;2023-02-11T07:31:07;6.20;99.90
35027;DHT22;60696;51.426;6.934;2023-02-11T07:33:33;6.10;99.90
35027;DHT22;60696;51.426;6.934;2023-02-11T07:36:00;6.20;99.90
35027;DHT22;60696;51.426;6.934;2023-02-11T07:38:26;6.20;99.90
35027;DHT22;60696;51.426;6.934;2023-02-11T07:40:51;6.20;99.90
35027;DHT22;60696;51.426;6.934;2023-02-11T07:43:17;6.20;99.90
35027;DHT22;60696;51.426;6.934;2023-02-11T07:45:43;6.20;99.90
35027;DHT22;60696;51.426;6.934;2023-02-11T07:48:08;6.20;99.90
35027;DHT22;60696;51.426;6.934;2023-02-11T07:50:34;6.30;99.90
35027;DHT22;60696;51.426;6.934;2023-02-11T07:52:59;6.30;99.90
35027;DHT22;60696;51.426;6.934;2023-02-11T07:55:25;6.30;99.90
35027;DHT22;60696;51.426;6.934;2023-02-11T07:57:50;6.30;99.90
35027;DHT22;60696;51.426;6.934;2023-02-11T08:00:16;6.30;99.90
35027;DHT22;60696;51.426;6.934;2023-02-11T08:02:42;6.30;99.90
35027;DHT22;60696;51.426;6.934;2023-02-11T08:05:07;6.20;99.90
35027;DHT22;60696;51.426;6.934;2023-02-11T08:07:33;6.20;99.90
35027;DHT22;60696;51.426;6.934;2023-02-11T08:09:59;6.30;99.90
35027;DHT22;60696;51.426;6.934;2023-02-11T08:12:24;6.30;99.90
35027;DHT22;60696;51.426;6.934;2023-02-11T08:14:50;6.40;99.90
35027;DHT22;60696;51.426;6.934;2023-02-11T08:17:16;6.30;99.90
35027;DHT22;60696;51.426;6.934;2023-02-11T08:19:41;6.40;99.90
35027;DHT22;60696;51.426;6.934;2023-02-11T08:22:07;6.40;99.90
35027;DHT22;60696;51.426;6.934;2023-02-11T08:24:32;6.50;99.90
35027;DHT22;60696;51.426;6.934;2023-02-11T08:26:58;6.50;99.90
35027;DHT22;60696;51.426;6.934;2023-02-11T08:29:24;6.60;99.90
35027;DHT22;60696;51.426;6.934;2023-02-11T08:31:55;6.60;99.90
35027;DHT22;60696;51.426;6.934;2023-02-11T08:34:21;6.60;99.90
35027;DHT22;60696;51.426;6.934;2023-02-11T08:36:47;6.60;99.90
35027;DHT22;60696;51.426;6.934;2023-02-11T08:39:18;6.60;99.90
35027;DHT22;60696;51.426;6.934;2023-02-11T08:41:45;6.60;99.90
35027;DHT22;60696;51.426;6.934;2023-02-11T08:44:13;6.60;99.90
35027;DHT22;60696;51.426;6.934;2023-02-11T08:46:38;6.60;99.90
35027;DHT22;60696;51.426;6.934;2023-02-11T08:49:04;6.60;99.90
35027;DHT22;60696;51.426;6.934;2023-02-11T08:51:32;6.70;99.90
35027;DHT22;60696;51.426;6.934;2023-02-11T08:53:58;6.70;99.90
35027;DHT22;60696;51.426;6.934;2023-02-11T08:56:24;6.70;99.90
35027;DHT22;60696;51.426;6.934;2023-02-11T08:58:51;6.70;99.90
35027;DHT22;60696;51.426;6.934;2023-02-11T09:01:22;6.70;99.90
35027;DHT22;60696;51.426;6.934;2023-02-11T09:03:48;6.70;99.90
35027;DHT22;60696;51.426;6.934;2023-02-11T09:06:15;6.80;99.90
35027;DHT22;60696;51.426;6.934;2023-02-11T09:08:44;6.80;99.90
35027;DHT22;60696;51.426;6.934;2023-02-11T09:11:11;6.90;99.90
35027;DHT22;60696;51.426;6.934;2023-02-11T09:13:36;6.80;99.90
35027;DHT22;60696;51.426;6.934;2023-02-11T09:16:04;6.90;99.90
35027;DHT22;60696;51.426;6.934;2023-02-11T09:18:30;6.90;99.90
35027;DHT22;60696;51.426;6.934;2023-02-11T09:21:04;6.90;99.90
35027;DHT22;60696;51.426;6.934;2023-02-11T09:23:30;7.00;99.90
35027;DHT22;60696;51.426;6.934;2023-02-11T09:26:08;7.00;99.90
35027;DHT22;60696;51.426;6.934;2023-02-11T09:28:34;6.90;99.90
35027;DHT22;60696;51.426;6.934;2023-02-11T09:31:08;7.00;99.90
35027;DHT22;60696;51.426;6.934;2023-02-11T09:33:35;7.00;99.90
35027;DHT22;60696;51.426;6.934;2023-02-11T09:36:01;6.90;99.90
35027;DHT22;60696;51.426;6.934;2023-02-11T09:38:27;7.00;99.90
35027;DHT22;60696;51.426;6.934;2023-02-11T09:40:53;7.00;99.90
35027;DHT22;60696;51.426;6.934;2023-02-11T09:43:42;7.00;99.90
35027;DHT22;60696;51.426;6.934;2023-02-11T09:46:07;7.00;99.90
35027;DHT22;60696;51.426;6.934;2023-02-11T09:48:39;7.10;99.90
35027;DHT22;60696;51.426;6.934;2023-02-11T09:51:18;7.10;99.90
35027;DHT22;60696;51.426;6.934;2023-02-11T09:53:44;7.10;99.90
35027;DHT22;60696;51.426;6.934;2023-02-11T09:56:13;7.20;99.90
35027;DHT22;60696;51.426;6.934;2023-02-11T09:58:42;7.20;99.90
35027;DHT22;60696;51.426;6.934;2023-02-11T10:06:50;7.20;99.90
35027;DHT22;60696;51.426;6.934;2023-02-11T10:09:58;7.30;99.90
35027;DHT22;60696;51.426;6.934;2023-02-11T10:15:30;7.40;99.90
35027;DHT22;60696;51.426;6.934;2023-02-11T10:18:24;7.50;99.90
35027;DHT22;60696;51.426;6.934;2023-02-11T10:21:12;7.50;99.90
35027;DHT22;60696;51.426;6.934;2023-02-11T10:23:45;7.50;99.90
35027;DHT22;60696;51.426;6.934;2023-02-11T10:26:15;7.60;99.90
35027;DHT22;60696;51.426;6.934;2023-02-11T10:28:44;7.50;99.90
35027;DHT22;60696;51.426;6.934;2023-02-11T10:31:23;7.60;99.90
35027;DHT22;60696;51.426;6.934;2023-02-11T10:34:09;7.60;99.90
35027;DHT22;60696;51.426;6.934;2023-02-11T10:36:37;7.70;99.90
35027;DHT22;60696;51.426;6.934;2023-02-11T10:39:15;7.60;99.90
35027;DHT22;60696;51.426;6.934;2023-02-11T10:41:47;7.60;99.90
35027;DHT22;60696;51.426;6.934;2023-02-11T10:44:33;7.60;99.90
35027;DHT22;60696;51.426;6.934;2023-02-11T10:47:14;7.60;99.90
35027;DHT22;60696;51.426;6.934;2023-02-11T10:49:44;7.70;99.90
35027;DHT22;60696;51.426;6.934;2023-02-11T10:57:36;7.90;99.90
35027;DHT22;60696;51.426;6.934;2023-02-11T11:00:30;7.90;99.90
35027;DHT22;60696;51.426;6.934;2023-02-11T11:02:59;7.90;99.90
35027;DHT22;60696;51.426;6.934;2023-02-11T11:05:37;7.90;99.90
35027;DHT22;60696;51.426;6.934;2023-02-11T11:08:09;7.90;99.90
35027;DHT22;60696;51.426;6.934;2023-02-11T11:10:42;7.90;99.90
35027;DHT22;60696;51.426;6.934;2023-02-11T11:18:36;7.90;99.90
35027;DHT22;60696;51.426;6.934;2023-02-11T11:21:05;8.00;99.90
35027;DHT22;60696;51.426;6.934;2023-02-11T11:23:34;8.00;99.90
35027;DHT22;60696;51.426;6.934;2023-02-11T11:26:06;8.00;99.90
35027;DHT22;60696;51.426;6.934;2023-02-11T11:31:19;8.00;99.90
35027;DHT22;60696;51.426;6.934;2023-02-11T11:33:46;8.10;99.90
35027;DHT22;60696;51.426;6.934;2023-02-11T11:36:21;8.10;99.90
35027;DHT22;60696;51.426;6.934;2023-02-11T11:38:56;8.20;99.90
35027;DHT22;60696;51.426;6.934;2023-02-11T11:41:33;8.20;99.90
35027;DHT22;60696;51.426;6.934;2023-02-11T11:44:03;8.20;99.90
35027;DHT22;60696;51.426;6.934;2023-02-11T11:46:30;8.20;99.90
35027;DHT22;60696;51.426;6.934;2023-02-11T11:51:50;8.20;99.90
35027;DHT22;60696;51.426;6.934;2023-02-11T11:54:19;8.30;99.90
35027;DHT22;60696;51.426;6.934;2023-02-11T11:57:05;8.30;99.90
35027;DHT22;60696;51.426;6.934;2023-02-11T11:59:34;8.30;99.90
35027;DHT22;60696;51.426;6.934;2023-02-11T12:05:01;8.40;99.90
35027;DHT22;60696;51.426;6.934;2023-02-11T12:07:55;8.40;99.90
35027;DHT22;60696;51.426;6.934;2023-02-11T12:10:43;8.40;99.90
35027;DHT22;60696;51.426;6.934;2023-02-11T12:26:55;8.50;99.90
35027;DHT22;60696;51.426;6.934;2023-02-11T12:35:40;8.50;99.90
35027;DHT22;60696;51.426;6.934;2023-02-11T12:43:39;8.70;99.90
35027;DHT22;60696;51.426;6.934;2023-02-11T13:02:38;8.60;99.90
35027;DHT22;60696;51.426;6.934;2023-02-11T13:05:28;8.60;99.90
35027;DHT22;60696;51.426;6.934;2023-02-11T13:08:10;8.80;99.90
35027;DHT22;60696;51.426;6.934;2023-02-11T13:10:40;8.90;99.90
35027;DHT22;60696;51.426;6.934;2023-02-11T13:16:17;8.90;99.90
35027;DHT22;60696;51.426;6.934;2023-02-11T13:21:28;9.00;99.90
35027;DHT22;60696;51.426;6.934;2023-02-11T13:24:00;9.00;99.90
35027;DHT22;60696;51.426;6.934;2023-02-11T13:32:15;9.00;99.90
35027;DHT22;60696;51.426;6.934;2023-02-11T13:37:22;9.10;99.90
35027;DHT22;60696;51.426;6.934;2023-02-11T13:42:23;9.00;99.90
35027;DHT22;60696;51.426;6.934;2023-02-11T13:44:49;9.00;99.90
35027;DHT22;60696;51.426;6.934;2023-02-11T13:47:28;9.00;99.90
35027;DHT22;60696;51.426;6.934;2023-02-11T13:49:55;9.00;99.90
35027;DHT22;60696;51.426;6.934;2023-02-11T13:52:25;8.90;99.90
35027;DHT22;60696;51.426;6.934;2023-02-11T13:54:53;9.00;99.90
35027;DHT22;60696;51.426;6.934;2023-02-11T13:59:56;9.00;99.90
35027;DHT22;60696;51.426;6.934;2023-02-11T14:13:33;9.00;99.90
35027;DHT22;60696;51.426;6.934;2023-02-11T14:16:06;9.00;99.90
35027;DHT22;60696;51.426;6.934;2023-02-11T14:18:35;9.00;99.90
35027;DHT22;60696;51.426;6.934;2023-02-11T14:21:19;9.00;99.90
35027;DHT22;60696;51.426;6.934;2023-02-11T14:23:51;9.10;99.90
35027;DHT22;60696;51.426;6.934;2023-02-11T14:31:51;9.40;99.90
35027;DHT22;60696;51.426;6.934;2023-02-11T14:38:18;9.50;99.90
35027;DHT22;60696;51.426;6.934;2023-02-11T14:42:41;9.70;99.90
35027;DHT22;60696;51.426;6.934;2023-02-11T14:45:09;9.70;99.90
35027;DHT22;60696;51.426;6.934;2023-02-11T14:47:45;9.80;99.90
35027;DHT22;60696;51.426;6.934;2023-02-11T14:53:15;9.80;99.90
35027;DHT22;60696;51.426;6.934;2023-02-11T14:55:45;9.70;99.90
35027;DHT22;60696;51.426;6.934;2023-02-11T14:58:17;9.60;99.90
35027;DHT22;60696;51.426;6.934;2023-02-11T15:00:54;9.60;99.90
35027;DHT22;60696;51.426;6.934;2023-02-11T15:03:25;9.50;99.90
35027;DHT22;60696;51.426;6.934;2023-02-11T15:08:44;9.40;99.90
35027;DHT22;60696;51.426;6.934;2023-02-11T15:11:13;9.50;99.90
35027;DHT22;60696;51.426;6.934;2023-02-11T15:13:40;9.50;99.90
35027;DHT22;60696;51.426;6.934;2023-02-11T15:16:13;9.50;99.90
35027;DHT22;60696;51.426;6.934;2023-02-11T15:18:45;9.40;99.90
35027;DHT22;60696;51.426;6.934;2023-02-11T15:21:11;9.30;99.90
35027;DHT22;60696;51.426;6.934;2023-02-11T15:23:37;9.30;99.90
35027;DHT22;60696;51.426;6.934;2023-02-11T15:26:12;9.30;99.90
35027;DHT22;60696;51.426;6.934;2023-02-11T15:28:43;9.30;99.90
35027;DHT22;60696;51.426;6.934;2023-02-11T15:31:14;9.20;99.90
35027;DHT22;60696;51.426;6.934;2023-02-11T15:33:40;9.20;99.90
35027;DHT22;60696;51.426;6.934;2023-02-11T15:36:08;9.20;99.90
35027;DHT22;60696;51.426;6.934;2023-02-11T15:38:34;9.10;99.90
35027;DHT22;60696;51.426;6.934;2023-02-11T15:41:01;9.10;99.90
35027;DHT22;60696;51.426;6.934;2023-02-11T15:46:05;9.00;99.90
35027;DHT22;60696;51.426;6.934;2023-02-11T15:48:34;9.00;99.90
35027;DHT22;60696;51.426;6.934;2023-02-11T15:51:31;9.00;99.90
35027;DHT22;60696;51.426;6.934;2023-02-11T15:54:01;8.90;99.90
35027;DHT22;60696;51.426;6.934;2023-02-11T15:56:39;8.80;99.90
35027;DHT22;60696;51.426;6.934;2023-02-11T15:59:17;8.80;99.90
35027;DHT22;60696;51.426;6.934;2023-02-11T16:01:44;8.70;99.90
35027;DHT22;60696;51.426;6.934;2023-02-11T16:04:25;8.70;99.90
35027;DHT22;60696;51.426;6.934;2023-02-11T16:06:53;8.60;99.90
35027;DHT22;60696;51.426;6.934;2023-02-11T16:09:32;8.60;99.90
35027;DHT22;60696;51.426;6.934;2023-02-11T16:12:04;8.60;99.90
35027;DHT22;60696;51.426;6.934;2023-02-11T16:14:44;8.60;99.90
35027;DHT22;60696;51.426;6.934;2023-02-11T16:17:23;8.50;99.90
35027;DHT22;60696;51.426;6.934;2023-02-11T16:19:51;8.50;99.90
35027;DHT22;60696;51.426;6.934;2023-02-11T16:22:26;8.60;99.90
35027;DHT22;60696;51.426;6.934;2023-02-11T16:24:56;8.60;99.90
35027;DHT22;60696;51.426;6.934;2023-02-11T16:27:24;8.60;99.90
35027;DHT22;60696;51.426;6.934;2023-02-11T16:29:53;8.60;99.90
35027;DHT22;60696;51.426;6.934;2023-02-11T16:32:22;8.50;99.90
35027;DHT22;60696;51.426;6.934;2023-02-11T16:34:48;8.60;99.90
35027;DHT22;60696;51.426;6.934;2023-02-11T16:37:14;8.60;99.90
35027;DHT22;60696;51.426;6.934;2023-02-11T16:39:40;8.60;99.90
35027;DHT22;60696;51.426;6.934;2023-02-11T16:42:06;8.60;99.90
35027;DHT22;60696;51.426;6.934;2023-02-11T16:44:32;8.60;99.90
35027;DHT22;60696;51.426;6.934;2023-02-11T16:46:59;8.50;99.90
35027;DHT22;60696;51.426;6.934;2023-02-11T16:49:36;8.50;99.90
35027;DHT22;60696;51.426;6.934;2023-02-11T16:52:06;8.50;99.90
35027;DHT22;60696;51.426;6.934;2023-02-11T16:54:32;8.50;99.90
35027;DHT22;60696;51.426;6.934;2023-02-11T16:56:58;8.50;99.90
35027;DHT22;60696;51.426;6.934;2023-02-11T16:59:24;8.50;99.90
35027;DHT22;60696;51.426;6.934;2023-02-11T17:01:51;8.40;99.90
35027;DHT22;60696;51.426;6.934;2023-02-11T17:04:35;8.50;99.90
35027;DHT22;60696;51.426;6.934;2023-02-11T17:07:01;8.50;99.90
35027;DHT22;60696;51.426;6.934;2023-02-11T17:09:27;8.50;99.90
35027;DHT22;60696;51.426;6.934;2023-02-11T17:11:52;8.50;99.90
35027;DHT22;60696;51.426;6.934;2023-02-11T17:14:19;8.50;99.90
35027;DHT22;60696;51.426;6.934;2023-02-11T17:16:47;8.60;99.90
35027;DHT22;60696;51.426;6.934;2023-02-11T17:19:15;8.50;99.90
35027;DHT22;60696;51.426;6.934;2023-02-11T17:21:45;8.60;99.90
35027;DHT22;60696;51.426;6.934;2023-02-11T17:24:11;8.60;99.90
35027;DHT22;60696;51.426;6.934;2023-02-11T17:26:38;8.60;99.90
35027;DHT22;60696;51.426;6.934;2023-02-11T17:29:05;8.50;99.90
35027;DHT22;60696;51.426;6.934;2023-02-11T17:31:32;8.50;99.90
35027;DHT22;60696;51.426;6.934;2023-02-11T17:33:57;8.50;99.90
35027;DHT22;60696;51.426;6.934;2023-02-11T17:36:23;8.50;99.90
35027;DHT22;60696;51.426;6.934;2023-02-11T17:38:49;8.50;99.90
35027;DHT22;60696;51.426;6.934;2023-02-11T17:41:15;8.50;99.90
35027;DHT22;60696;51.426;6.934;2023-02-11T17:43:41;8.40;99.90
35027;DHT22;60696;51.426;6.934;2023-02-11T17:46:08;8.40;99.90
35027;DHT22;60696;51.426;6.934;2023-02-11T17:48:36;8.40;99.90
35027;DHT22;60696;51.426;6.934;2023-02-11T17:51:03;8.40;99.90
35027;DHT22;60696;51.426;6.934;2023-02-11T17:53:29;8.40;99.90
35027;DHT22;60696;51.426;6.934;2023-02-11T17:55:55;8.30;99.90
35027;DHT22;60696;51.426;6.934;2023-02-11T17:58:21;8.40;99.90
35027;DHT22;60696;51.426;6.934;2023-02-11T18:00:46;8.40;99.90
35027;DHT22;60696;51.426;6.934;2023-02-11T18:03:12;8.40;99.90
35027;DHT22;60696;51.426;6.934;2023-02-11T18:05:38;8.40;99.90
35027;DHT22;60696;51.426;6.934;2023-02-11T18:08:05;8.40;99.90
35027;DHT22;60696;51.426;6.934;2023-02-11T18:10:31;8.40;99.90
35027;DHT22;60696;51.426;6.934;2023-02-11T18:12:59;8.40;99.90
35027;DHT22;60696;51.426;6.934;2023-02-11T18:15:25;8.40;99.90
35027;DHT22;60696;51.426;6.934;2023-02-11T18:17:50;8.40;99.90
35027;DHT22;60696;51.426;6.934;2023-02-11T18:20:16;8.40;99.90
35027;DHT22;60696;51.426;6.934;2023-02-11T18:22:42;8.40;99.90
35027;DHT22;60696;51.426;6.934;2023-02-11T18:25:11;8.40;99.90
35027;DHT22;60696;51.426;6.934;2023-02-11T18:27:38;8.40;99.90